Time;durP1;ratioP1;P1;durP2;ratioP2;P2;SDS_P1;SDS_P2;PMS_P1;PMS_P2;Temp;Humidity;BMP_temperature;BMP_pressure;BME280_temperature;BME280_humidity;BME280_pressure;Samples;Min_cycle;Max_cycle;Signal;HPM_P1;HPM_P2
2023/08/30 00:01:42;;;;;;;0.90;0.75;;;10.90;99.90;;;;;;5111728;28;20083;-75
2023/08/30 00:04:07;;;;;;;0.80;0.70;;;10.80;99.90;;;;;;5102209;28;20124;-75
2023/08/30 00:06:33;;;;;;;1.05;0.90;;;10.80;99.90;;;;;;5101211;28;20398;-74
2023/08/30 00:08:58;;;;;;;0.63;0.45;;;10.80;99.90;;;;;;5097639;28;20039;-75
2023/08/30 00:11:24;;;;;;;0.73;0.63;;;10.80;99.90;;;;;;5110937;28;20097;-74
2023/08/30 00:13:50;;;;;;;3.15;1.98;;;10.70;99.90;;;;;;5107459;28;20517;-74
2023/08/30 00:16:16;;;;;;;1.15;0.70;;;10.70;99.90;;;;;;5103184;28;20043;-74
2023/08/30 00:18:44;;;;;;;1.30;1.20;;;10.70;99.90;;;;;;5098618;28;20070;-74
2023/08/30 00:21:10;;;;;;;0.82;0.50;;;10.80;99.90;;;;;;5109183;28;20043;-74
2023/08/30 00:23:35;;;;;;;1.65;1.02;;;10.60;99.90;;;;;;5102795;28;20036;-74
2023/08/30 00:26:01;;;;;;;0.80;0.80;;;10.60;99.90;;;;;;5095246;28;20059;-74
2023/08/30 00:28:27;;;;;;;3.78;0.55;;;10.60;99.90;;;;;;5103096;28;20048;-74
2023/08/30 00:30:55;;;;;;;1.15;0.60;;;10.60;99.90;;;;;;5102123;28;20486;-74
2023/08/30 00:33:21;;;;;;;0.30;0.30;;;10.60;99.90;;;;;;5096032;28;20040;-75
2023/08/30 00:35:54;;;;;;;1.13;1.00;;;10.60;99.90;;;;;;5100788;28;20044;-76
2023/08/30 00:38:20;;;;;;;0.43;0.43;;;10.50;99.90;;;;;;5107345;28;20450;-75
2023/08/30 00:40:45;;;;;;;1.02;0.95;;;10.50;99.90;;;;;;5102235;28;20075;-75
2023/08/30 00:43:11;;;;;;;0.70;0.70;;;10.50;1.00;;;;;;5102979;28;20044;-74
2023/08/30 00:45:40;;;;;;;6.30;0.88;;;10.60;1.00;;;;;;5105090;28;20036;-74
2023/08/30 00:48:06;;;;;;;1.85;0.93;;;10.60;1.00;;;;;;5098737;28;20076;-75
2023/08/30 00:50:33;;;;;;;0.60;0.60;;;10.60;1.00;;;;;;5113247;28;20478;-74
2023/08/30 00:52:59;;;;;;;1.77;1.02;;;10.70;1.00;;;;;;5099342;28;20044;-75
2023/08/30 00:55:24;;;;;;;2.35;1.25;;;10.70;1.00;;;;;;5103261;28;20043;-74
2023/08/30 00:57:50;;;;;;;1.65;1.33;;;10.90;1.00;;;;;;5108354;28;20801;-74
2023/08/30 01:00:16;;;;;;;1.05;0.88;;;11.00;7.10;;;;;;5108484;28;20036;-75
2023/08/30 01:02:42;;;;;;;1.80;1.00;;;11.00;19.90;;;;;;5106053;28;20071;-75
2023/08/30 01:05:09;;;;;;;0.55;0.55;;;11.10;20.00;;;;;;5104873;28;20032;-75
2023/08/30 01:07:35;;;;;;;0.20;0.10;;;11.10;1.00;;;;;;5105584;27;20502;-75
2023/08/30 01:10:01;;;;;;;5.03;1.35;;;11.20;1.00;;;;;;5105035;28;20040;-75
2023/08/30 01:12:42;;;;;;;2.00;0.40;;;11.20;1.00;;;;;;5104876;28;20059;-75
2023/08/30 01:15:15;;;;;;;2.10;1.35;;;11.10;1.00;;;;;;5097877;28;20035;-74
2023/08/30 01:17:45;;;;;;;0.82;0.80;;;11.00;1.00;;;;;;5111902;28;20040;-75
2023/08/30 01:20:15;;;;;;;1.90;1.35;;;11.00;1.00;;;;;;5104828;28;20036;-75
2023/08/30 01:23:05;;;;;;;1.50;0.82;;;10.90;1.00;;;;;;5103245;28;20048;-75
2023/08/30 01:25:34;;;;;;;3.60;1.65;;;10.80;1.00;;;;;;5100181;28;20048;-75
2023/08/30 01:28:03;;;;;;;1.35;0.80;;;10.80;1.00;;;;;;5105882;28;20040;-75
2023/08/30 01:30:30;;;;;;;0.98;0.45;;;10.80;1.00;;;;;;5107871;28;20050;-75
2023/08/30 01:32:56;;;;;;;0.45;0.45;;;10.70;1.00;;;;;;5107790;28;20036;-75
2023/08/30 01:35:24;;;;;;;0.77;0.77;;;10.60;1.00;;;;;;5104700;28;20032;-74
2023/08/30 01:37:50;;;;;;;1.08;0.82;;;10.60;1.00;;;;;;5097184;28;20383;-75
2023/08/30 01:40:17;;;;;;;1.88;1.45;;;10.60;8.70;;;;;;5105036;28;20032;-75
2023/08/30 01:42:45;;;;;;;1.65;1.13;;;10.60;25.80;;;;;;5107416;28;20497;-75
2023/08/30 01:45:13;;;;;;;1.92;1.40;;;10.60;51.00;;;;;;5107382;28;20035;-75
2023/08/30 01:47:40;;;;;;;1.17;0.98;;;10.70;83.10;;;;;;5100233;28;20039;-75
2023/08/30 01:50:07;;;;;;;0.93;0.75;;;10.80;99.90;;;;;;5110529;28;20118;-75
2023/08/30 01:52:33;;;;;;;1.20;0.60;;;10.90;99.90;;;;;;5104647;28;20036;-75
2023/08/30 01:55:02;;;;;;;0.98;0.85;;;11.00;99.90;;;;;;5104318;28;20123;-74
2023/08/30 01:57:27;;;;;;;1.90;0.40;;;11.10;99.90;;;;;;5101752;28;20085;-75
2023/08/30 01:59:53;;;;;;;1.75;0.82;;;11.10;99.90;;;;;;5104240;28;20028;-75
2023/08/30 02:02:19;;;;;;;1.27;0.95;;;11.10;99.90;;;;;;5099126;28;20047;-74
2023/08/30 02:04:44;;;;;;;1.65;0.95;;;11.10;99.90;;;;;;5104946;28;20500;-75
2023/08/30 02:07:24;;;;;;;0.65;0.52;;;11.00;99.70;;;;;;5102924;28;20126;-75
2023/08/30 02:09:56;;;;;;;1.75;1.23;;;10.90;98.60;;;;;;5104633;28;20397;-75
2023/08/30 02:12:25;;;;;;;0.90;0.45;;;10.80;83.40;;;;;;5101573;28;20097;-75
2023/08/30 02:14:51;;;;;;;0.28;0.28;;;10.70;62.80;;;;;;5105016;28;20088;-74
2023/08/30 02:17:18;;;;;;;0.65;0.65;;;10.60;55.00;;;;;;5102174;28;20482;-75
2023/08/30 02:19:45;;;;;;;2.28;0.65;;;10.50;76.10;;;;;;5106893;28;20444;-74
2023/08/30 02:22:11;;;;;;;1.60;1.25;;;10.40;75.10;;;;;;5098923;28;20051;-74
2023/08/30 02:24:37;;;;;;;1.35;0.75;;;10.30;74.90;;;;;;5103552;28;20057;-75
2023/08/30 02:27:03;;;;;;;3.35;1.65;;;10.30;91.10;;;;;;5101079;28;20115;-75
2023/08/30 02:29:29;;;;;;;3.08;1.58;;;10.20;99.90;;;;;;5106578;28;20122;-75
2023/08/30 02:31:54;;;;;;;0.65;0.63;;;10.20;99.90;;;;;;5106676;28;20028;-74
2023/08/30 02:34:20;;;;;;;0.43;0.43;;;10.20;99.90;;;;;;5097589;28;20551;-74
2023/08/30 02:36:45;;;;;;;1.65;0.77;;;10.20;99.90;;;;;;5100524;28;20085;-75
2023/08/30 02:39:13;;;;;;;2.50;1.10;;;10.20;99.90;;;;;;5103023;28;20071;-75
2023/08/30 02:41:40;;;;;;;0.75;0.52;;;10.10;99.90;;;;;;5106502;28;20057;-74
2023/08/30 02:44:07;;;;;;;0.45;0.45;;;10.10;99.90;;;;;;5106387;28;20074;-75
2023/08/30 02:46:33;;;;;;;1.15;0.88;;;10.10;99.90;;;;;;5095181;28;20372;-75
2023/08/30 02:48:58;;;;;;;0.57;0.52;;;10.00;99.90;;;;;;5098330;28;20050;-74
2023/08/30 02:51:24;;;;;;;1.13;0.95;;;10.00;99.90;;;;;;5104716;28;20040;-75
2023/08/30 02:53:50;;;;;;;0.30;0.30;;;10.10;99.90;;;;;;5106664;28;20067;-74
2023/08/30 02:56:15;;;;;;;1.92;0.82;;;10.00;99.90;;;;;;5106415;28;20036;-75
2023/08/30 02:58:41;;;;;;;0.55;0.55;;;10.00;99.90;;;;;;5096674;28;20498;-75
2023/08/30 03:01:07;;;;;;;1.23;0.98;;;10.10;99.90;;;;;;5099574;28;20032;-74
2023/08/30 03:03:33;;;;;;;0.63;0.63;;;10.10;99.90;;;;;;5104107;28;20040;-74
2023/08/30 03:05:58;;;;;;;4.38;2.83;;;10.10;99.90;;;;;;5106364;28;20119;-75
2023/08/30 03:08:24;;;;;;;3.72;2.15;;;10.10;99.90;;;;;;5106009;28;20470;-75
2023/08/30 03:10:49;;;;;;;1.17;1.08;;;10.20;99.90;;;;;;5099223;28;20048;-75
2023/08/30 03:13:15;;;;;;;0.70;0.63;;;10.20;99.90;;;;;;5092007;28;20441;-75
2023/08/30 03:15:41;;;;;;;0.82;0.65;;;10.20;99.90;;;;;;5092381;28;20040;-74
2023/08/30 03:18:06;;;;;;;0.77;0.68;;;10.30;99.90;;;;;;5105791;28;20470;-75
2023/08/30 03:20:32;;;;;;;0.90;0.82;;;10.30;99.90;;;;;;5105149;28;20048;-74
2023/08/30 03:22:58;;;;;;;0.73;0.65;;;10.40;99.90;;;;;;5098044;28;20036;-74
2023/08/30 03:25:24;;;;;;;0.28;0.28;;;10.50;99.90;;;;;;5107688;28;20036;-75
2023/08/30 03:27:49;;;;;;;1.75;1.65;;;10.60;99.90;;;;;;5105430;28;20096;-74
2023/08/30 03:30:15;;;;;;;0.40;0.40;;;10.60;99.90;;;;;;5082278;28;20490;-75
2023/08/30 03:32:40;;;;;;;2.40;1.73;;;10.70;99.90;;;;;;5097507;28;20046;-75
2023/08/30 03:35:08;;;;;;;1.55;0.80;;;10.70;99.90;;;;;;5102645;28;20036;-74
2023/08/30 03:37:33;;;;;;;2.28;1.40;;;10.70;99.90;;;;;;5105638;28;20050;-75
2023/08/30 03:39:59;;;;;;;1.63;0.65;;;10.70;99.90;;;;;;5097078;28;20036;-75
2023/08/30 03:42:24;;;;;;;1.65;0.95;;;10.60;99.90;;;;;;5104915;28;20071;-74
2023/08/30 03:44:50;;;;;;;3.70;1.08;;;10.50;99.90;;;;;;5103632;28;20389;-75
2023/08/30 03:47:16;;;;;;;3.60;2.20;;;10.40;99.90;;;;;;5101076;28;20040;-74
2023/08/30 03:49:41;;;;;;;0.63;0.60;;;10.40;99.90;;;;;;5104414;28;20112;-74
2023/08/30 03:52:07;;;;;;;1.27;1.13;;;10.30;99.90;;;;;;5098178;28;20517;-74
2023/08/30 03:54:33;;;;;;;0.68;0.60;;;10.20;99.90;;;;;;5104575;28;20079;-74
2023/08/30 03:56:59;;;;;;;1.48;1.25;;;10.10;99.90;;;;;;5105223;28;20044;-74
2023/08/30 03:59:27;;;;;;;2.35;1.90;;;10.10;99.90;;;;;;5102726;28;20136;-74
2023/08/30 04:01:52;;;;;;;4.20;1.10;;;10.10;99.90;;;;;;5098214;28;20055;-74
2023/08/30 04:04:18;;;;;;;2.40;2.03;;;10.00;99.90;;;;;;5102280;28;20418;-74
2023/08/30 04:06:44;;;;;;;2.03;1.10;;;9.90;99.90;;;;;;5104319;28;20410;-74
2023/08/30 04:09:10;;;;;;;1.85;1.75;;;9.80;99.90;;;;;;5101924;28;20533;-75
2023/08/30 04:11:35;;;;;;;2.15;1.42;;;9.90;99.90;;;;;;5097968;28;20051;-74
2023/08/30 04:14:02;;;;;;;1.08;0.98;;;9.90;99.90;;;;;;5102115;28;20055;-74
2023/08/30 04:16:28;;;;;;;0.65;0.65;;;9.90;99.90;;;;;;5102011;28;20040;-74
2023/08/30 04:18:54;;;;;;;1.52;0.85;;;9.80;99.90;;;;;;5095913;28;20040;-75
2023/08/30 04:21:19;;;;;;;0.95;0.65;;;9.90;99.90;;;;;;5099346;28;20058;-74
2023/08/30 04:23:45;;;;;;;3.47;1.48;;;9.80;99.90;;;;;;5105410;28;20040;-74
2023/08/30 04:26:10;;;;;;;1.65;1.42;;;9.80;99.90;;;;;;5101889;28;20052;-75
2023/08/30 04:28:36;;;;;;;0.35;0.35;;;9.70;99.90;;;;;;5094478;28;20491;-73
2023/08/30 04:31:02;;;;;;;0.60;0.55;;;9.70;99.90;;;;;;5098969;28;20040;-74
2023/08/30 04:33:27;;;;;;;1.27;0.80;;;9.70;99.90;;;;;;5105261;28;20507;-75
2023/08/30 04:35:54;;;;;;;2.65;1.58;;;9.70;99.90;;;;;;5105112;28;20100;-74
2023/08/30 04:38:20;;;;;;;4.43;1.25;;;9.70;99.90;;;;;;5101948;28;20036;-75
2023/08/30 04:40:47;;;;;;;4.05;1.23;;;9.90;99.90;;;;;;5094676;28;20032;-74
2023/08/30 04:43:13;;;;;;;0.63;0.63;;;9.90;99.90;;;;;;5108310;28;20090;-75
2023/08/30 04:45:38;;;;;;;0.40;0.40;;;10.10;99.90;;;;;;5101901;28;20518;-74
2023/08/30 04:48:04;;;;;;;4.15;0.88;;;10.10;99.90;;;;;;5102014;28;20394;-74
2023/08/30 04:50:31;;;;;;;0.77;0.77;;;10.20;99.90;;;;;;5101897;28;20125;-74
2023/08/30 04:52:56;;;;;;;2.95;2.17;;;10.20;99.90;;;;;;5096178;28;20071;-75
2023/08/30 04:55:24;;;;;;;1.73;1.42;;;10.20;99.90;;;;;;5103379;28;20524;-74
2023/08/30 04:57:50;;;;;;;1.80;0.95;;;10.20;99.90;;;;;;5108746;28;20047;-74
2023/08/30 05:00:17;;;;;;;0.85;0.35;;;10.30;99.90;;;;;;5108588;28;20044;-74
2023/08/30 05:02:43;;;;;;;0.38;0.38;;;10.20;99.90;;;;;;5094638;28;20121;-75
2023/08/30 05:05:09;;;;;;;3.03;1.92;;;10.20;99.90;;;;;;5101067;28;20048;-75
2023/08/30 05:07:35;;;;;;;2.53;1.42;;;10.20;99.90;;;;;;5107107;28;20173;-74
2023/08/30 05:10:02;;;;;;;0.90;0.65;;;10.20;99.90;;;;;;5104981;28;20127;-74
2023/08/30 05:12:28;;;;;;;2.15;1.95;;;10.30;99.90;;;;;;5104242;28;20047;-74
2023/08/30 05:14:54;;;;;;;0.10;0.10;;;10.40;99.90;;;;;;5107600;28;20046;-74
2023/08/30 05:17:19;;;;;;;2.00;1.25;;;10.50;99.90;;;;;;5108250;28;20096;-74
2023/08/30 05:19:45;;;;;;;3.75;0.82;;;10.60;99.90;;;;;;5107323;28;20043;-75
2023/08/30 05:22:11;;;;;;;0.75;0.57;;;10.60;99.90;;;;;;5090093;28;20036;-74
2023/08/30 05:24:37;;;;;;;0.57;0.57;;;10.60;99.90;;;;;;5100700;28;20464;-75
2023/08/30 05:27:02;;;;;;;0.60;0.57;;;10.70;99.90;;;;;;5104390;28;20123;-74
2023/08/30 05:29:28;;;;;;;1.65;1.55;;;10.70;99.90;;;;;;5102267;28;20077;-75
2023/08/30 05:31:54;;;;;;;3.08;2.08;;;10.70;99.90;;;;;;5107005;28;20389;-75
2023/08/30 05:34:19;;;;;;;0.32;0.32;;;10.80;99.90;;;;;;5104741;28;20032;-74
2023/08/30 05:36:45;;;;;;;3.20;1.02;;;11.00;99.90;;;;;;5104714;28;20032;-74
2023/08/30 05:39:11;;;;;;;2.00;0.80;;;11.00;99.90;;;;;;5096179;28;20043;-74
2023/08/30 05:41:37;;;;;;;0.52;0.52;;;11.00;99.90;;;;;;5105996;28;20415;-74
2023/08/30 05:44:05;;;;;;;0.85;0.82;;;11.20;99.90;;;;;;5107920;28;20077;-74
2023/08/30 05:46:31;;;;;;;0.52;0.52;;;11.10;99.90;;;;;;5102117;28;20051;-74
2023/08/30 05:48:57;;;;;;;1.63;0.77;;;11.10;99.90;;;;;;5102874;28;20410;-74
2023/08/30 05:51:22;;;;;;;1.83;0.95;;;11.30;99.90;;;;;;5101929;28;20036;-74
2023/08/30 05:53:48;;;;;;;2.83;1.10;;;11.40;99.90;;;;;;5107523;28;20039;-74
2023/08/30 05:56:14;;;;;;;1.33;0.80;;;11.50;99.90;;;;;;5107779;28;20035;-74
2023/08/30 05:58:39;;;;;;;2.03;1.30;;;11.60;99.90;;;;;;5104469;28;20076;-74
2023/08/30 06:01:07;;;;;;;1.70;1.30;;;11.70;99.90;;;;;;5095843;28;20036;-74
2023/08/30 06:03:33;;;;;;;0.90;0.90;;;11.80;99.90;;;;;;5103844;28;20040;-74
2023/08/30 06:05:58;;;;;;;1.05;0.95;;;11.90;99.90;;;;;;5107452;28;20412;-74
2023/08/30 06:08:24;;;;;;;3.08;1.67;;;12.00;99.90;;;;;;5106463;28;20043;-74
2023/08/30 06:10:49;;;;;;;3.17;0.85;;;12.10;99.90;;;;;;5097825;28;20082;-74
2023/08/30 06:13:15;;;;;;;0.85;0.40;;;12.10;99.90;;;;;;5096091;28;20107;-74
2023/08/30 06:15:41;;;;;;;0.52;0.50;;;12.20;72.90;;;;;;5101664;28;20047;-74
2023/08/30 06:18:07;;;;;;;3.17;1.33;;;12.20;1.00;;;;;;5106979;28;20031;-74
2023/08/30 06:20:32;;;;;;;2.08;1.27;;;12.40;1.00;;;;;;5099818;28;20082;-74
2023/08/30 06:23:03;;;;;;;1.08;0.95;;;12.40;99.90;;;;;;5102077;28;20043;-74
2023/08/30 06:25:28;;;;;;;2.72;1.00;;;12.60;99.90;;;;;;5099107;28;20086;-74
2023/08/30 06:27:59;;;;;;;2.92;0.68;;;12.70;99.90;;;;;;5101290;28;20056;-73
2023/08/30 06:30:25;;;;;;;7.65;1.92;;;12.80;6.60;;;;;;5105668;28;20155;-73
2023/08/30 06:32:51;;;;;;;2.55;1.13;;;12.90;1.00;;;;;;5099560;28;20122;-74
2023/08/30 06:35:17;;;;;;;2.08;1.05;;;13.10;1.00;;;;;;5102158;28;20115;-74
2023/08/30 06:37:42;;;;;;;1.08;0.98;;;13.20;99.90;;;;;;5097203;28;20044;-73
2023/08/30 06:40:08;;;;;;;0.35;0.32;;;13.40;1.00;;;;;;5101357;28;20090;-73
2023/08/30 06:42:34;;;;;;;1.20;1.05;;;13.60;99.90;;;;;;5098800;28;20035;-73
2023/08/30 06:45:01;;;;;;;3.97;1.42;;;13.70;99.90;;;;;;5104074;28;20547;-74
2023/08/30 06:47:26;;;;;;;2.35;1.48;;;13.90;99.90;;;;;;5105318;28;20035;-73
2023/08/30 06:49:52;;;;;;;1.27;0.90;;;15.30;1.00;;;;;;5098216;28;20131;-74
2023/08/30 06:52:17;;;;;;;9.07;2.17;;;14.40;58.20;;;;;;5091487;28;20128;-74
2023/08/30 06:54:43;;;;;;;0.38;0.38;;;14.60;99.90;;;;;;5101942;28;20490;-74
2023/08/30 06:57:09;;;;;;;0.45;0.45;;;14.60;1.00;;;;;;5101981;28;20047;-74
2023/08/30 06:59:35;;;;;;;0.70;0.60;;;14.70;1.00;;;;;;5104183;28;20047;-73
2023/08/30 07:02:02;;;;;;;1.77;1.02;;;14.80;1.00;;;;;;5097560;28;20126;-74
2023/08/30 07:04:28;;;;;;;0.40;0.40;;;14.90;1.00;;;;;;5104270;28;20048;-74
2023/08/30 07:06:53;;;;;;;0.55;0.40;;;14.90;99.90;;;;;;5100694;28;20036;-74
2023/08/30 07:09:19;;;;;;;0.63;0.52;;;14.80;99.90;;;;;;5101901;28;20089;-73
2023/08/30 07:11:45;;;;;;;0.90;0.85;;;14.80;99.90;;;;;;5103038;28;20043;-73
2023/08/30 07:14:12;;;;;;;2.55;1.27;;;14.80;99.90;;;;;;5099146;28;20539;-74
2023/08/30 07:16:38;;;;;;;1.58;1.13;;;14.80;99.90;;;;;;5104530;28;20078;-74
2023/08/30 07:19:03;;;;;;;2.55;1.40;;;14.70;99.90;;;;;;5100639;28;20067;-74
2023/08/30 07:21:29;;;;;;;1.13;1.02;;;14.80;1.00;;;;;;5100451;28;20553;-74
2023/08/30 07:23:55;;;;;;;0.93;0.82;;;15.00;99.90;;;;;;5098159;28;20044;-74
2023/08/30 07:26:20;;;;;;;0.47;0.43;;;15.10;99.90;;;;;;5081964;28;20036;-74
2023/08/30 07:28:46;;;;;;;2.47;2.08;;;15.50;99.90;;;;;;5098288;28;20070;-74
2023/08/30 07:31:15;;;;;;;4.10;0.90;;;15.40;99.90;;;;;;5092129;28;20049;-74
2023/08/30 07:33:41;;;;;;;1.50;1.05;;;15.40;1.00;;;;;;5102337;28;20499;-75
2023/08/30 07:36:08;;;;;;;1.42;1.25;;;15.40;1.00;;;;;;5095005;28;20131;-74
2023/08/30 07:38:34;;;;;;;3.33;1.77;;;15.50;1.00;;;;;;5096485;28;20589;-74
2023/08/30 07:41:00;;;;;;;5.00;1.73;;;15.70;99.90;;;;;;5094578;28;20094;-74
2023/08/30 07:43:26;;;;;;;1.52;0.93;;;15.80;99.90;;;;;;5098979;28;20050;-74
2023/08/30 07:45:52;;;;;;;4.93;1.08;;;16.00;99.90;;;;;;5098060;28;20048;-74
2023/08/30 07:48:17;;;;;;;3.05;1.33;;;16.10;99.90;;;;;;5093937;28;20075;-75
2023/08/30 07:50:43;;;;;;;0.82;0.38;;;16.30;99.90;;;;;;5094939;28;20461;-75
2023/08/30 07:53:09;;;;;;;2.72;1.55;;;16.40;99.90;;;;;;5096243;28;20410;-75
2023/08/30 07:55:36;;;;;;;2.35;0.70;;;16.60;99.90;;;;;;5082762;28;20047;-74
2023/08/30 07:58:02;;;;;;;1.52;1.23;;;16.70;99.90;;;;;;5101040;28;20036;-75
2023/08/30 08:00:29;;;;;;;2.67;1.30;;;16.90;99.90;;;;;;5083270;28;20041;-75
2023/08/30 08:02:54;;;;;;;0.65;0.63;;;17.10;99.90;;;;;;5091444;28;20100;-75
2023/08/30 08:05:20;;;;;;;2.10;1.05;;;17.20;99.90;;;;;;5097869;28;20481;-75
2023/08/30 08:07:52;;;;;;;1.00;0.65;;;17.30;71.10;;;;;;5101008;28;20096;-75
2023/08/30 08:10:18;;;;;;;1.27;1.13;;;17.50;43.70;;;;;;5101261;28;20111;-75
2023/08/30 08:12:43;;;;;;;0.38;0.38;;;17.30;22.70;;;;;;5091823;28;20470;-75
2023/08/30 08:15:09;;;;;;;0.15;0.15;;;17.40;25.60;;;;;;5097996;28;20185;-74
2023/08/30 08:17:35;;;;;;;2.60;0.77;;;17.40;1.00;;;;;;5102750;28;20512;-74
2023/08/30 08:20:01;;;;;;;0.20;0.20;;;17.70;1.00;;;;;;5097970;28;20390;-74
2023/08/30 08:22:26;;;;;;;2.13;1.00;;;18.10;24.40;;;;;;5096719;28;20032;-74
2023/08/30 08:24:54;;;;;;;1.70;1.08;;;18.60;1.00;;;;;;5097168;28;20565;-75
2023/08/30 08:27:19;;;;;;;2.15;1.10;;;18.90;1.00;;;;;;5095302;28;20047;-75
2023/08/30 08:29:45;;;;;;;1.23;1.13;;;19.10;1.00;;;;;;5096584;28;20686;-75
2023/08/30 08:32:10;;;;;;;0.80;0.80;;;19.10;1.00;;;;;;5098489;28;20040;-75
2023/08/30 08:34:36;;;;;;;1.65;0.70;;;19.00;1.00;;;;;;5100714;28;20115;-75
2023/08/30 08:37:02;;;;;;;1.80;1.60;;;18.80;1.00;;;;;;5101605;28;20051;-75
2023/08/30 08:39:27;;;;;;;2.00;1.13;;;18.80;1.00;;;;;;5101686;28;20036;-75
2023/08/30 08:41:54;;;;;;;0.82;0.75;;;18.80;1.00;;;;;;5099191;28;20069;-74
2023/08/30 08:44:22;;;;;;;0.73;0.70;;;18.70;1.00;;;;;;5095006;28;20050;-74
2023/08/30 08:46:49;;;;;;;5.10;0.90;;;18.70;1.00;;;;;;5100152;28;20133;-74
2023/08/30 08:49:16;;;;;;;0.55;0.47;;;18.70;1.00;;;;;;5100055;28;20150;-75
2023/08/30 08:51:45;;;;;;;1.15;1.05;;;18.70;1.00;;;;;;5095919;28;20040;-74
2023/08/30 08:54:12;;;;;;;1.77;0.95;;;18.70;1.00;;;;;;5103192;28;20143;-76
2023/08/30 08:56:39;;;;;;;0.77;0.60;;;18.70;1.00;;;;;;5092219;28;20482;-75
2023/08/30 08:59:06;;;;;;;0.45;0.40;;;18.80;1.00;;;;;;5099905;28;20503;-74
2023/08/30 09:01:35;;;;;;;0.95;0.90;;;18.90;1.00;;;;;;5098925;28;20044;-73
2023/08/30 09:04:10;;;;;;;0.73;0.73;;;18.80;1.00;;;;;;5101509;28;20097;-74
2023/08/30 09:06:37;;;;;;;1.27;1.00;;;18.80;99.90;;;;;;5101289;28;20070;-73
2023/08/30 09:09:03;;;;;;;0.98;0.73;;;18.80;1.00;;;;;;5100006;28;20087;-73
2023/08/30 09:11:29;;;;;;;0.90;0.82;;;18.80;1.00;;;;;;5096131;28;20056;-73
2023/08/30 09:13:55;;;;;;;1.27;0.82;;;18.90;99.90;;;;;;5101412;28;20044;-73
2023/08/30 09:16:21;;;;;;;5.47;1.40;;;18.90;1.00;;;;;;5101285;28;20039;-73
2023/08/30 09:19:00;;;;;;;1.20;0.65;;;18.80;1.00;;;;;;5099499;28;20574;-73
2023/08/30 09:21:26;;;;;;;0.95;0.77;;;18.80;99.90;;;;;;5096203;28;20115;-74
2023/08/30 09:23:59;;;;;;;1.30;1.10;;;18.60;99.90;;;;;;5095156;28;20040;-74
2023/08/30 09:26:28;;;;;;;3.50;1.88;;;18.40;99.90;;;;;;5100562;28;20043;-73
2023/08/30 09:28:54;;;;;;;1.08;0.98;;;18.20;99.90;;;;;;5100221;28;20173;-73
2023/08/30 09:31:20;;;;;;;1.25;0.80;;;18.00;99.90;;;;;;5096232;28;20093;-73
2023/08/30 09:33:48;;;;;;;1.08;0.73;;;17.90;99.90;;;;;;5096503;28;20075;-73
2023/08/30 09:36:14;;;;;;;2.35;0.93;;;17.80;99.90;;;;;;5098386;28;20046;-73
2023/08/30 09:38:40;;;;;;;0.70;0.40;;;17.70;99.90;;;;;;5103243;28;20036;-74
2023/08/30 09:41:06;;;;;;;2.03;0.77;;;17.60;99.90;;;;;;5098113;28;20059;-74
2023/08/30 09:43:34;;;;;;;1.65;1.10;;;17.50;99.90;;;;;;5102463;28;20075;-74
2023/08/30 09:46:04;;;;;;;0.40;0.40;;;17.30;99.90;;;;;;5095193;28;20036;-73
2023/08/30 09:48:31;;;;;;;0.15;0.10;;;17.10;99.90;;;;;;5079359;28;20074;-74
2023/08/30 09:51:01;;;;;;;3.95;1.75;;;16.80;99.90;;;;;;5096971;28;20052;-74
2023/08/30 09:53:32;;;;;;;1.15;1.05;;;16.60;99.90;;;;;;5101810;28;20050;-73
2023/08/30 09:55:59;;;;;;;1.65;0.88;;;16.40;99.90;;;;;;5102957;28;20414;-73
2023/08/30 09:58:27;;;;;;;0.68;0.68;;;16.20;1.00;;;;;;5097436;28;20505;-74
2023/08/30 10:00:53;;;;;;;0.80;0.35;;;15.80;1.00;;;;;;5095103;28;20036;-73
2023/08/30 10:03:19;;;;;;;0.30;0.25;;;15.30;99.90;;;;;;5095589;28;20044;-74
2023/08/30 10:05:46;;;;;;;0.60;0.43;;;15.00;99.90;;;;;;5101699;28;20509;-74
2023/08/30 10:08:14;;;;;;;0.73;0.63;;;14.90;99.90;;;;;;5093982;28;20043;-76
2023/08/30 10:10:40;;;;;;;3.92;1.55;;;14.70;17.00;;;;;;5099339;28;20048;-76
2023/08/30 10:13:06;;;;;;;0.40;0.30;;;14.60;1.00;;;;;;5094594;28;20058;-76
2023/08/30 10:15:35;;;;;;;1.10;0.47;;;14.70;99.90;;;;;;5101918;28;20051;-76
2023/08/30 10:18:03;;;;;;;0.30;0.30;;;15.40;99.90;;;;;;5096941;28;20036;-76
2023/08/30 10:20:29;;;;;;;0.93;0.52;;;15.50;99.90;;;;;;5093375;28;20097;-76
2023/08/30 10:22:56;;;;;;;0.55;0.55;;;15.70;99.90;;;;;;5100874;28;20051;-76
2023/08/30 10:25:27;;;;;;;0.95;0.88;;;16.10;99.90;;;;;;5101817;28;20048;-76
2023/08/30 10:27:55;;;;;;;0.85;0.63;;;16.50;1.00;;;;;;5099848;28;20058;-76
2023/08/30 10:30:22;;;;;;;1.25;0.75;;;16.80;57.80;;;;;;5087895;28;20083;-76
2023/08/30 10:32:48;;;;;;;0.30;0.30;;;16.50;99.90;;;;;;5086750;28;20041;-76
2023/08/30 10:35:17;;;;;;;0.63;0.52;;;16.60;99.90;;;;;;5102085;28;20547;-75
2023/08/30 10:37:55;;;;;;;0.70;0.52;;;16.60;1.00;;;;;;5101343;28;20047;-75
2023/08/30 10:40:22;;;;;;;1.17;0.22;;;16.60;99.90;;;;;;5089310;28;20036;-76
2023/08/30 10:42:58;;;;;;;1.85;0.98;;;16.60;1.00;;;;;;5089612;28;20035;-76
2023/08/30 10:45:24;;;;;;;0.43;0.20;;;16.60;1.00;;;;;;5090299;28;20083;-75
2023/08/30 10:47:55;;;;;;;0.40;0.40;;;16.80;99.90;;;;;;5101496;28;20478;-75
2023/08/30 10:50:31;;;;;;;0.68;0.50;;;17.00;8.80;;;;;;5099492;28;20047;-75
2023/08/30 10:52:57;;;;;;;1.27;0.98;;;17.30;99.90;;;;;;5101013;28;20035;-76
2023/08/30 10:55:24;;;;;;;0.30;0.30;;;17.50;99.90;;;;;;5097972;28;20123;-76
2023/08/30 10:58:02;;;;;;;1.20;0.90;;;17.70;1.00;;;;;;5097882;28;20036;-76
2023/08/30 11:00:29;;;;;;;0.55;0.55;;;17.80;1.00;;;;;;5097480;28;20037;-75
2023/08/30 11:02:55;;;;;;;1.55;1.35;;;17.80;1.00;;;;;;5101800;28;20051;-75
2023/08/30 11:05:23;;;;;;;3.75;0.88;;;17.90;1.00;;;;;;5092121;28;20044;-75
2023/08/30 11:07:50;;;;;;;0.52;0.45;;;18.00;99.90;;;;;;5090802;28;20048;-75
2023/08/30 11:10:17;;;;;;;0.52;0.30;;;18.30;99.90;;;;;;5084063;28;20044;-75
2023/08/30 11:12:44;;;;;;;0.60;0.52;;;18.50;99.90;;;;;;5095477;28;20090;-75
2023/08/30 11:15:11;;;;;;;2.88;0.60;;;18.50;14.30;;;;;;5098979;28;20039;-75
2023/08/30 11:17:37;;;;;;;5.88;0.75;;;18.30;14.40;;;;;;5099135;28;20042;-75
2023/08/30 11:20:11;;;;;;;6.13;0.52;;;18.00;1.00;;;;;;5096786;28;20043;-75
2023/08/30 11:22:39;;;;;;;6.43;0.55;;;18.00;1.00;;;;;;5096908;28;20079;-75
2023/08/30 11:25:06;;;;;;;1.45;1.08;;;17.70;4.90;;;;;;5090250;28;20450;-75
2023/08/30 11:27:31;;;;;;;6.13;1.10;;;17.50;23.10;;;;;;5098409;28;20059;-75
2023/08/30 11:30:03;;;;;;;0.55;0.30;;;17.30;43.50;;;;;;5100854;28;20504;-75
2023/08/30 11:32:31;;;;;;;1.95;0.98;;;17.20;60.80;;;;;;5095714;28;20587;-75
2023/08/30 11:35:00;;;;;;;2.08;1.65;;;17.30;31.50;;;;;;5099560;28;20085;-75
2023/08/30 11:37:27;;;;;;;2.22;0.63;;;17.10;59.60;;;;;;5101425;28;20028;-75
2023/08/30 11:39:54;;;;;;;1.00;0.63;;;16.80;99.90;;;;;;5101414;28;20046;-75
2023/08/30 11:42:21;;;;;;;0.57;0.50;;;16.60;99.90;;;;;;5085603;28;20051;-75
2023/08/30 11:44:46;;;;;;;0.52;0.50;;;16.20;99.90;;;;;;5101614;28;20063;-75
2023/08/30 11:47:19;;;;;;;0.85;0.82;;;16.10;99.90;;;;;;5097055;28;20615;-75
2023/08/30 11:49:46;;;;;;;0.15;0.15;;;15.90;99.90;;;;;;5095286;28;20039;-75
2023/08/30 11:52:11;;;;;;;0.65;0.65;;;15.80;99.90;;;;;;5096901;28;20039;-75
2023/08/30 11:54:37;;;;;;;1.60;1.00;;;15.70;63.80;;;;;;5099600;28;20106;-75
2023/08/30 11:57:04;;;;;;;0.90;0.63;;;15.50;99.90;;;;;;5101026;28;20047;-75
2023/08/30 11:59:34;;;;;;;0.70;0.65;;;15.50;99.90;;;;;;5108161;28;20183;-75
2023/08/30 12:01:59;;;;;;;1.20;0.70;;;15.40;67.90;;;;;;5094225;28;20398;-75
2023/08/30 12:04:25;;;;;;;0.75;0.45;;;15.20;1.00;;;;;;5100920;28;20040;-75
2023/08/30 12:06:54;;;;;;;2.55;0.65;;;15.10;1.00;;;;;;5096131;28;20043;-76
2023/08/30 12:09:21;;;;;;;2.97;1.23;;;14.90;1.00;;;;;;5107351;28;20040;-76
2023/08/30 12:11:48;;;;;;;0.75;0.30;;;14.90;99.90;;;;;;5098044;28;20043;-76
2023/08/30 12:14:14;;;;;;;1.70;0.57;;;14.60;89.20;;;;;;5100793;28;20060;-75
2023/08/30 12:16:41;;;;;;;0.73;0.52;;;15.00;99.90;;;;;;5103559;28;20046;-75
2023/08/30 12:19:10;;;;;;;0.50;0.47;;;15.00;99.90;;;;;;5099766;28;20058;-75
2023/08/30 12:21:43;;;;;;;1.35;0.88;;;15.00;99.90;;;;;;5105109;28;20473;-75
2023/08/30 12:24:09;;;;;;;1.33;1.02;;;15.00;99.90;;;;;;5108321;28;20078;-75
2023/08/30 12:26:38;;;;;;;0.20;0.15;;;15.10;99.90;;;;;;5106848;28;20032;-75
2023/08/30 12:29:04;;;;;;;0.75;0.25;;;15.20;99.90;;;;;;5107786;28;20044;-75
2023/08/30 12:31:31;;;;;;;2.20;1.67;;;15.30;99.90;;;;;;5106480;28;20047;-75
2023/08/30 12:33:56;;;;;;;1.25;0.90;;;15.30;99.90;;;;;;5104449;28;20052;-75
2023/08/30 12:36:22;;;;;;;2.22;0.85;;;15.20;99.90;;;;;;5110522;28;20027;-75
2023/08/30 12:38:48;;;;;;;1.95;1.05;;;15.10;99.90;;;;;;5108020;28;20036;-75
2023/08/30 12:41:13;;;;;;;0.22;0.10;;;15.30;99.90;;;;;;5105187;28;20070;-75
2023/08/30 12:43:39;;;;;;;0.40;0.40;;;15.10;99.90;;;;;;5101984;28;20127;-75
2023/08/30 12:46:05;;;;;;;0.70;0.55;;;15.10;99.90;;;;;;5106059;28;20062;-75
2023/08/30 12:48:30;;;;;;;1.40;0.65;;;15.10;99.90;;;;;;5102042;28;20115;-75